Time;durP1;ratioP1;P1;durP2;ratioP2;P2;SDS_P1;SDS_P2;PMS_P1;PMS_P2;Temp;Humidity;BMP_temperature;BMP_pressure;BME280_temperature;BME280_humidity;BME280_pressure;Samples;Min_cycle;Max_cycle;Signal;HPM_P1;HPM_P2
2021/08/30 00:00:24;;;;;;;25.37;14.98;;;;;;;;;;1764349;81;21224;-47
2021/08/30 00:02:53;;;;;;;22.10;13.95;;;;;;;;;;1764176;81;21075;-49
2021/08/30 00:05:22;;;;;;;20.23;13.30;;;;;;;;;;1764298;81;21107;-49
2021/08/30 00:07:50;;;;;;;20.08;14.15;;;;;;;;;;1764270;81;21145;-48
2021/08/30 00:10:20;;;;;;;18.05;13.10;;;;;;;;;;1764346;81;21178;-48
2021/08/30 00:12:48;;;;;;;24.50;13.80;;;;;;;;;;1764286;81;21079;-48
2021/08/30 00:15:18;;;;;;;23.80;15.28;;;;;;;;;;1764206;81;21074;-48
2021/08/30 00:17:47;;;;;;;26.45;14.60;;;;;;;;;;1764390;81;21186;-47
2021/08/30 00:20:17;;;;;;;18.02;13.78;;;;;;;;;;1764248;81;21079;-49
2021/08/30 00:22:46;;;;;;;21.97;14.28;;;;;;;;;;1764268;81;21066;-50
2021/08/30 00:25:14;;;;;;;26.30;16.97;;;;;;;;;;1764303;81;21095;-47
2021/08/30 00:27:43;;;;;;;24.23;14.45;;;;;;;;;;1764271;81;21058;-50
2021/08/30 00:30:12;;;;;;;23.83;14.58;;;;;;;;;;1764284;81;21144;-48
2021/08/30 00:32:41;;;;;;;20.77;14.03;;;;;;;;;;1764385;81;21134;-51
2021/08/30 00:35:10;;;;;;;27.37;15.13;;;;;;;;;;1764015;81;21109;-49
2021/08/30 00:37:39;;;;;;;19.70;13.78;;;;;;;;;;1762176;81;21059;-49
2021/08/30 00:40:08;;;;;;;22.93;15.23;;;;;;;;;;1762065;81;21075;-47
2021/08/30 00:42:37;;;;;;;25.40;15.15;;;;;;;;;;1762176;81;21067;-48
2021/08/30 00:45:07;;;;;;;29.63;16.62;;;;;;;;;;1762034;81;21075;-49
2021/08/30 00:47:37;;;;;;;22.95;14.10;;;;;;;;;;1762123;81;21070;-49
2021/08/30 00:50:07;;;;;;;26.75;13.80;;;;;;;;;;1762083;81;21031;-49
2021/08/30 00:52:35;;;;;;;28.40;15.03;;;;;;;;;;1762212;81;21140;-50
2021/08/30 00:55:04;;;;;;;24.57;13.32;;;;;;;;;;1762128;81;21071;-49
2021/08/30 00:57:33;;;;;;;19.80;13.65;;;;;;;;;;1762090;81;21055;-47
2021/08/30 01:00:02;;;;;;;23.52;16.23;;;;;;;;;;1762115;81;21047;-47
2021/08/30 01:02:31;;;;;;;25.50;14.87;;;;;;;;;;1762188;81;21074;-50
2021/08/30 01:05:00;;;;;;;27.58;14.83;;;;;;;;;;1762137;81;21114;-47
2021/08/30 01:07:42;;;;;;;32.70;15.13;;;;;;;;;;1762060;81;21133;-48
2021/08/30 01:10:18;;;;;;;28.40;14.47;;;;;;;;;;1762163;81;21217;-47
2021/08/30 01:12:48;;;;;;;26.50;14.90;;;;;;;;;;1762130;81;21087;-48
2021/08/30 01:15:19;;;;;;;27.77;14.95;;;;;;;;;;1762047;81;21161;-47
2021/08/30 01:17:48;;;;;;;32.15;17.57;;;;;;;;;;1762150;81;21136;-48
2021/08/30 01:20:18;;;;;;;21.12;14.33;;;;;;;;;;1762067;81;21066;-50
2021/08/30 01:22:47;;;;;;;26.37;15.28;;;;;;;;;;1762445;80;21132;-48
2021/08/30 01:25:17;;;;;;;21.23;13.53;;;;;;;;;;1762094;81;21063;-49
2021/08/30 01:27:46;;;;;;;19.07;13.93;;;;;;;;;;1762142;81;21063;-50
2021/08/30 01:30:17;;;;;;;21.93;13.78;;;;;;;;;;1762096;81;21031;-50
2021/08/30 01:33:00;;;;;;;23.62;14.58;;;;;;;;;;1762177;81;21058;-48
2021/08/30 01:35:30;;;;;;;27.30;14.78;;;;;;;;;;1762015;81;21857;-49
2021/08/30 01:38:00;;;;;;;26.15;13.68;;;;;;;;;;1762085;81;21082;-49
2021/08/30 01:40:30;;;;;;;28.25;13.88;;;;;;;;;;1762064;81;21128;-50
2021/08/30 01:43:00;;;;;;;22.48;14.15;;;;;;;;;;1762111;81;21579;-49
2021/08/30 01:45:30;;;;;;;27.17;15.20;;;;;;;;;;1762189;81;21145;-49
2021/08/30 01:48:00;;;;;;;17.12;13.32;;;;;;;;;;1762287;81;21074;-49
2021/08/30 01:50:29;;;;;;;18.42;13.65;;;;;;;;;;1762277;81;21067;-48
2021/08/30 01:52:59;;;;;;;33.33;14.65;;;;;;;;;;1762266;81;21038;-50
2021/08/30 02:00:43;;;;;;;19.80;13.90;;;;;;;;;;1762206;81;21113;-50
2021/08/30 02:03:14;;;;;;;20.17;13.90;;;;;;;;;;1762140;81;21082;-47
2021/08/30 02:05:46;;;;;;;18.48;13.38;;;;;;;;;;1762119;81;21042;-49
2021/08/30 02:08:15;;;;;;;20.12;14.68;;;;;;;;;;1762270;81;21031;-47
2021/08/30 02:10:44;;;;;;;18.27;13.58;;;;;;;;;;1762201;81;21071;-48
2021/08/30 02:13:14;;;;;;;21.05;13.80;;;;;;;;;;1762087;81;21149;-51
2021/08/30 02:15:43;;;;;;;19.30;12.80;;;;;;;;;;1762265;81;21047;-50
2021/08/30 02:18:22;;;;;;;20.32;12.75;;;;;;;;;;1762204;81;21157;-50
2021/08/30 02:20:55;;;;;;;23.77;13.75;;;;;;;;;;1710224;81;21245;-51
2021/08/30 02:23:25;;;;;;;23.52;13.50;;;;;;;;;;1762088;80;21055;-50
2021/08/30 02:25:55;;;;;;;24.77;14.95;;;;;;;;;;1762202;81;21063;-49
2021/08/30 02:28:25;;;;;;;24.25;14.50;;;;;;;;;;1762212;81;21062;-48
2021/08/30 02:30:54;;;;;;;19.70;12.85;;;;;;;;;;1762272;81;21070;-49
2021/08/30 02:33:24;;;;;;;21.95;13.55;;;;;;;;;;1762210;81;21066;-48
2021/08/30 02:35:53;;;;;;;17.00;13.25;;;;;;;;;;1762261;81;21063;-48
2021/08/30 02:38:22;;;;;;;18.42;12.58;;;;;;;;;;1764297;81;21103;-49
2021/08/30 02:40:51;;;;;;;20.55;13.40;;;;;;;;;;1764319;81;21628;-49
2021/08/30 02:43:20;;;;;;;23.52;15.05;;;;;;;;;;1764328;81;21134;-47
2021/08/30 02:45:49;;;;;;;22.60;13.25;;;;;;;;;;1764346;81;21166;-48
2021/08/30 02:48:18;;;;;;;23.55;14.33;;;;;;;;;;1764399;81;21075;-50
2021/08/30 02:50:47;;;;;;;18.30;13.13;;;;;;;;;;1764379;81;21047;-48
2021/08/30 02:53:16;;;;;;;22.93;13.83;;;;;;;;;;1764296;81;21087;-49
2021/08/30 02:55:45;;;;;;;22.85;13.38;;;;;;;;;;1764311;81;21052;-48
2021/08/30 02:58:14;;;;;;;17.80;12.45;;;;;;;;;;1764220;81;21063;-49
2021/08/30 03:00:42;;;;;;;18.87;13.43;;;;;;;;;;1764279;81;21058;-48
2021/08/30 03:03:11;;;;;;;17.73;12.55;;;;;;;;;;1764243;81;21157;-48
2021/08/30 03:05:41;;;;;;;29.87;17.32;;;;;;;;;;1764242;81;21071;-50
2021/08/30 03:08:10;;;;;;;25.92;14.87;;;;;;;;;;1764390;81;21086;-48
2021/08/30 03:10:38;;;;;;;25.88;14.23;;;;;;;;;;1764303;81;21071;-50
2021/08/30 03:13:08;;;;;;;24.00;13.83;;;;;;;;;;1764332;81;21087;-47
2021/08/30 03:15:36;;;;;;;23.70;16.52;;;;;;;;;;1764318;81;21169;-51
2021/08/30 03:18:07;;;;;;;19.17;13.53;;;;;;;;;;1764205;81;21070;-49
2021/08/30 03:20:35;;;;;;;23.00;13.30;;;;;;;;;;1764271;81;21086;-50
2021/08/30 03:23:04;;;;;;;24.00;13.30;;;;;;;;;;1764363;81;21094;-49
2021/08/30 03:25:34;;;;;;;23.98;15.68;;;;;;;;;;1764226;81;21156;-50
2021/08/30 03:28:04;;;;;;;22.15;13.62;;;;;;;;;;1764290;81;21586;-49
2021/08/30 03:30:34;;;;;;;30.15;15.35;;;;;;;;;;1764215;81;21090;-50
2021/08/30 03:33:03;;;;;;;20.27;13.48;;;;;;;;;;1764152;81;21200;-48
2021/08/30 03:35:32;;;;;;;27.55;13.72;;;;;;;;;;1764356;81;21051;-49
2021/08/30 03:38:01;;;;;;;23.70;13.32;;;;;;;;;;1762759;81;21154;-50
2021/08/30 03:40:31;;;;;;;25.45;14.03;;;;;;;;;;1762045;81;21071;-48
2021/08/30 03:43:00;;;;;;;21.93;14.53;;;;;;;;;;1761977;81;21063;-48
2021/08/30 03:45:29;;;;;;;24.75;15.08;;;;;;;;;;1762150;81;21133;-51
2021/08/30 03:47:59;;;;;;;21.45;14.30;;;;;;;;;;1762252;81;21161;-51
2021/08/30 03:50:28;;;;;;;26.45;15.10;;;;;;;;;;1762267;81;21075;-48
2021/08/30 03:52:57;;;;;;;31.07;14.85;;;;;;;;;;1762155;81;21144;-47
2021/08/30 03:55:26;;;;;;;24.90;15.08;;;;;;;;;;1762202;81;21075;-48
2021/08/30 03:57:57;;;;;;;23.87;14.53;;;;;;;;;;1762038;81;21086;-50
2021/08/30 04:00:28;;;;;;;23.90;15.30;;;;;;;;;;1762196;81;21595;-50
2021/08/30 04:02:57;;;;;;;23.12;14.85;;;;;;;;;;1762127;81;21587;-49
2021/08/30 04:05:28;;;;;;;23.85;14.05;;;;;;;;;;1762136;81;21513;-51
2021/08/30 04:07:59;;;;;;;30.55;14.80;;;;;;;;;;1762064;81;21063;-51
2021/08/30 04:10:29;;;;;;;29.98;14.87;;;;;;;;;;1762246;81;21046;-50
2021/08/30 04:12:59;;;;;;;23.22;15.28;;;;;;;;;;1762268;81;21624;-51
2021/08/30 04:15:28;;;;;;;27.93;15.90;;;;;;;;;;1762279;81;21121;-50
2021/08/30 04:17:57;;;;;;;26.48;16.20;;;;;;;;;;1762113;81;21070;-50
2021/08/30 04:20:25;;;;;;;27.52;15.25;;;;;;;;;;1762064;81;21075;-51
2021/08/30 04:22:54;;;;;;;24.90;14.68;;;;;;;;;;1762114;81;21105;-48
2021/08/30 04:25:23;;;;;;;22.82;15.03;;;;;;;;;;1762152;81;21074;-49
2021/08/30 04:27:52;;;;;;;36.48;15.60;;;;;;;;;;1762168;81;21067;-51
2021/08/30 04:30:21;;;;;;;28.10;15.08;;;;;;;;;;1762207;81;21122;-47
2021/08/30 04:32:53;;;;;;;28.25;14.28;;;;;;;;;;1762158;81;21157;-47
2021/08/30 04:35:20;;;;;;;30.88;14.65;;;;;;;;;;1762150;81;21141;-48
2021/08/30 04:37:49;;;;;;;31.23;14.87;;;;;;;;;;1761140;81;21173;-51
2021/08/30 04:40:18;;;;;;;22.93;13.30;;;;;;;;;;1761659;81;21091;-48
2021/08/30 04:42:46;;;;;;;27.48;15.32;;;;;;;;;;1761990;81;21086;-47
2021/08/30 04:45:15;;;;;;;29.48;14.93;;;;;;;;;;1762149;81;21141;-48
2021/08/30 04:47:44;;;;;;;26.80;16.30;;;;;;;;;;1762016;81;21074;-48
2021/08/30 04:50:13;;;;;;;25.92;15.68;;;;;;;;;;1762142;81;21067;-48
2021/08/30 04:52:41;;;;;;;28.00;15.35;;;;;;;;;;1762045;81;21062;-51
2021/08/30 04:55:11;;;;;;;25.68;15.72;;;;;;;;;;1762100;81;21059;-49
2021/08/30 04:57:39;;;;;;;31.45;16.82;;;;;;;;;;1762045;81;21106;-47
2021/08/30 05:00:09;;;;;;;24.67;15.35;;;;;;;;;;1762148;81;21130;-50
2021/08/30 05:02:38;;;;;;;23.87;15.68;;;;;;;;;;1762043;81;21153;-49
2021/08/30 05:05:07;;;;;;;29.02;14.70;;;;;;;;;;1761953;81;21067;-48
2021/08/30 05:07:36;;;;;;;24.63;14.78;;;;;;;;;;1762022;81;21062;-49
2021/08/30 05:10:05;;;;;;;28.95;17.60;;;;;;;;;;1762161;81;21061;-49
2021/08/30 05:12:34;;;;;;;33.48;18.00;;;;;;;;;;1761973;81;21054;-48
2021/08/30 05:15:02;;;;;;;32.05;18.87;;;;;;;;;;1762079;81;21035;-48
2021/08/30 05:17:31;;;;;;;29.92;22.58;;;;;;;;;;1762018;81;21102;-49
2021/08/30 05:20:00;;;;;;;29.70;18.15;;;;;;;;;;1762303;81;21062;-51
2021/08/30 05:22:29;;;;;;;26.75;15.13;;;;;;;;;;1762147;81;21051;-51
2021/08/30 05:24:57;;;;;;;33.38;18.60;;;;;;;;;;1762148;81;21071;-50
2021/08/30 05:30:08;;;;;;;23.87;13.08;;;;;;;;;;1958871;73;22529;-48
2021/08/30 05:32:37;;;;;;;20.23;11.50;;;;;;;;;;1918420;75;21108;-48
2021/08/30 05:35:06;;;;;;;15.93;11.43;;;;;;;;;;1918441;75;21110;-48
2021/08/30 05:37:35;;;;;;;22.22;12.25;;;;;;;;;;1918360;75;21035;-46
2021/08/30 05:40:05;;;;;;;26.00;12.15;;;;;;;;;;1918386;75;21035;-47
2021/08/30 05:42:34;;;;;;;15.40;11.28;;;;;;;;;;1918409;75;21118;-49
2021/08/30 05:45:03;;;;;;;24.30;11.83;;;;;;;;;;1918249;75;21015;-49
2021/08/30 05:47:32;;;;;;;26.87;14.43;;;;;;;;;;1918215;73;21027;-47
2021/08/30 05:50:01;;;;;;;22.52;11.43;;;;;;;;;;1918289;75;21030;-49
2021/08/30 05:52:29;;;;;;;18.73;10.95;;;;;;;;;;1918268;75;21066;-47
2021/08/30 05:54:58;;;;;;;21.57;11.08;;;;;;;;;;1918275;75;21027;-48
2021/08/30 05:57:27;;;;;;;22.35;11.65;;;;;;;;;;1918253;75;21084;-48
2021/08/30 05:59:56;;;;;;;18.98;11.70;;;;;;;;;;1918425;75;21027;-50
2021/08/30 06:02:25;;;;;;;25.82;11.57;;;;;;;;;;1918257;74;21182;-49
2021/08/30 06:04:54;;;;;;;22.32;11.50;;;;;;;;;;1918225;74;21031;-50
2021/08/30 06:07:23;;;;;;;23.42;11.15;;;;;;;;;;1918266;75;20995;-47
2021/08/30 06:09:51;;;;;;;42.27;23.92;;;;;;;;;;1918339;75;21015;-48
2021/08/30 06:12:20;;;;;;;26.55;12.10;;;;;;;;;;1918151;75;21007;-47
2021/08/30 06:14:49;;;;;;;25.88;12.75;;;;;;;;;;1918157;73;21047;-48
2021/08/30 06:17:18;;;;;;;25.12;11.65;;;;;;;;;;1918202;75;21081;-48
2021/08/30 06:19:47;;;;;;;28.57;21.10;;;;;;;;;;1918159;74;21007;-48
2021/08/30 06:22:16;;;;;;;15.72;9.65;;;;;;;;;;1918256;75;21011;-49
2021/08/30 06:24:50;;;;;;;18.85;8.60;;;;;;;;;;1918267;75;21023;-50
2021/08/30 06:27:17;;;;;;;17.20;8.75;;;;;;;;;;1916962;74;21513;-50
2021/08/30 06:29:46;;;;;;;16.42;8.75;;;;;;;;;;1922828;74;21088;-48
2021/08/30 06:32:14;;;;;;;15.72;7.95;;;;;;;;;;1925319;74;20995;-49
2021/08/30 06:34:43;;;;;;;15.48;10.25;;;;;;;;;;1925262;74;21085;-50
2021/08/30 06:37:12;;;;;;;15.93;9.83;;;;;;;;;;1925303;74;21097;-51
2021/08/30 06:39:41;;;;;;;18.50;8.20;;;;;;;;;;1925265;74;21031;-48
2021/08/30 06:42:10;;;;;;;15.95;9.68;;;;;;;;;;1924633;74;21046;-47
2021/08/30 06:44:38;;;;;;;18.98;9.68;;;;;;;;;;1924804;74;21097;-50
2021/08/30 06:47:07;;;;;;;18.73;9.35;;;;;;;;;;1924533;74;21027;-51
2021/08/30 06:49:36;;;;;;;18.55;9.60;;;;;;;;;;1924636;74;21084;-48
2021/08/30 06:52:05;;;;;;;21.60;12.63;;;;;;;;;;1924644;74;21023;-50
2021/08/30 06:54:35;;;;;;;35.48;16.62;;;;;;;;;;1924776;74;21014;-50
2021/08/30 06:57:04;;;;;;;12.60;9.38;;;;;;;;;;1924660;74;21077;-50
2021/08/30 06:59:33;;;;;;;27.87;13.62;;;;;;;;;;1924596;74;21027;-47
2021/08/30 07:02:02;;;;;;;20.55;11.53;;;;;;;;;;1924572;74;21088;-50
2021/08/30 07:04:30;;;;;;;22.22;11.18;;;;;;;;;;1924610;74;21031;-50
2021/08/30 07:06:59;;;;;;;15.08;9.10;;;;;;;;;;1924561;74;21066;-48
2021/08/30 07:09:28;;;;;;;15.43;9.80;;;;;;;;;;1924688;74;21039;-47
2021/08/30 07:11:57;;;;;;;15.83;10.00;;;;;;;;;;1924567;74;21022;-49
2021/08/30 07:14:26;;;;;;;15.50;9.08;;;;;;;;;;1924715;74;21015;-51
2021/08/30 07:16:55;;;;;;;26.10;9.75;;;;;;;;;;1924694;74;21023;-49
2021/08/30 07:19:24;;;;;;;20.05;11.70;;;;;;;;;;1924659;74;21011;-48
2021/08/30 07:21:52;;;;;;;23.25;12.73;;;;;;;;;;1924573;74;21031;-51
2021/08/30 07:24:21;;;;;;;22.15;12.07;;;;;;;;;;1924531;74;21035;-51
2021/08/30 07:26:50;;;;;;;21.90;11.90;;;;;;;;;;1924506;74;21034;-47
2021/08/30 07:29:19;;;;;;;18.12;10.40;;;;;;;;;;1919091;74;21051;-51
2021/08/30 07:31:48;;;;;;;13.88;9.18;;;;;;;;;;1905159;75;21141;-48
2021/08/30 07:34:16;;;;;;;16.62;9.85;;;;;;;;;;1903661;75;21016;-50
2021/08/30 07:36:45;;;;;;;19.75;10.45;;;;;;;;;;1904620;74;21077;-47
2021/08/30 07:39:14;;;;;;;17.60;10.50;;;;;;;;;;1904716;74;21207;-50
2021/08/30 07:41:43;;;;;;;12.88;9.03;;;;;;;;;;1904539;75;21095;-45
2021/08/30 07:44:12;;;;;;;17.37;10.05;;;;;;;;;;1904645;75;21027;-47
2021/08/30 07:46:41;;;;;;;22.17;9.65;;;;;;;;;;1904630;75;21071;-49
2021/08/30 07:49:10;;;;;;;14.60;9.93;;;;;;;;;;1904641;75;21075;-47
2021/08/30 07:51:42;;;;;;;20.00;10.75;;;;;;;;;;1904559;75;21031;-50
2021/08/30 07:54:11;;;;;;;15.95;11.00;;;;;;;;;;1904603;75;21063;-50
2021/08/30 07:56:40;;;;;;;20.72;10.68;;;;;;;;;;1904627;75;21031;-49
2021/08/30 07:59:10;;;;;;;22.98;12.55;;;;;;;;;;1904826;75;21079;-50
2021/08/30 08:01:39;;;;;;;20.27;11.28;;;;;;;;;;1904600;75;21028;-49
2021/08/30 08:04:07;;;;;;;21.77;11.08;;;;;;;;;;1904926;75;21011;-51
2021/08/30 08:06:36;;;;;;;15.32;10.50;;;;;;;;;;1904627;75;21024;-48
2021/08/30 08:09:05;;;;;;;19.40;11.78;;;;;;;;;;1904598;75;21543;-49
2021/08/30 08:11:34;;;;;;;19.60;10.58;;;;;;;;;;1904615;75;21222;-50
2021/08/30 08:14:03;;;;;;;22.48;11.85;;;;;;;;;;1904755;75;21109;-46
2021/08/30 08:16:32;;;;;;;22.65;11.10;;;;;;;;;;1904623;75;21023;-49
2021/08/30 08:19:00;;;;;;;19.87;10.88;;;;;;;;;;1904685;75;21074;-50
2021/08/30 08:21:30;;;;;;;15.20;10.20;;;;;;;;;;1904630;75;21032;-49
2021/08/30 08:23:59;;;;;;;21.80;9.73;;;;;;;;;;1904682;75;21035;-46
2021/08/30 08:26:27;;;;;;;21.25;10.82;;;;;;;;;;1904476;75;21031;-46
2021/08/30 08:28:56;;;;;;;18.67;10.58;;;;;;;;;;1904610;75;21145;-47
2021/08/30 08:31:26;;;;;;;19.80;10.70;;;;;;;;;;1923572;74;21069;-48
2021/08/30 08:33:55;;;;;;;18.62;10.30;;;;;;;;;;1923784;74;21124;-49
2021/08/30 08:36:24;;;;;;;17.35;10.88;;;;;;;;;;1923870;74;21160;-51
2021/08/30 08:38:53;;;;;;;16.02;10.88;;;;;;;;;;1924030;74;21018;-49
2021/08/30 08:41:22;;;;;;;14.55;9.68;;;;;;;;;;1924032;74;21081;-49
2021/08/30 08:43:51;;;;;;;17.87;11.00;;;;;;;;;;1924087;74;21117;-49
2021/08/30 08:46:20;;;;;;;19.87;10.85;;;;;;;;;;1924051;74;21532;-48
2021/08/30 08:48:49;;;;;;;20.45;11.05;;;;;;;;;;1923883;74;21074;-46
2021/08/30 08:51:18;;;;;;;25.95;11.18;;;;;;;;;;1923938;74;21027;-48
2021/08/30 08:53:47;;;;;;;16.52;10.78;;;;;;;;;;1923907;74;21035;-47
2021/08/30 08:56:17;;;;;;;16.00;11.48;;;;;;;;;;1923901;74;21398;-48
2021/08/30 08:58:46;;;;;;;19.70;13.05;;;;;;;;;;1924050;74;20999;-47
2021/08/30 09:01:14;;;;;;;18.17;12.37;;;;;;;;;;1924007;74;21027;-47
2021/08/30 09:03:51;;;;;;;26.60;10.65;;;;;;;;;;1923884;74;21128;-48
2021/08/30 09:06:39;;;;;;;17.02;10.82;;;;;;;;;;1923719;74;20995;-50
2021/08/30 09:09:07;;;;;;;17.92;11.35;;;;;;;;;;1923697;74;21504;-48
2021/08/30 09:11:44;;;;;;;19.55;11.70;;;;;;;;;;1923887;74;21128;-49
2021/08/30 09:14:14;;;;;;;23.95;11.78;;;;;;;;;;1923987;74;21408;-47
2021/08/30 09:16:43;;;;;;;22.42;12.23;;;;;;;;;;1923185;74;21094;-49
2021/08/30 09:19:13;;;;;;;22.37;11.80;;;;;;;;;;1923915;74;21027;-49
2021/08/30 09:21:43;;;;;;;17.42;10.95;;;;;;;;;;1923888;74;21015;-49
2021/08/30 09:24:12;;;;;;;21.60;11.28;;;;;;;;;;1923794;74;21073;-52
2021/08/30 09:26:45;;;;;;;25.80;12.50;;;;;;;;;;1923807;74;21136;-48
2021/08/30 09:29:17;;;;;;;15.05;10.88;;;;;;;;;;1923908;74;21027;-49
2021/08/30 09:32:04;;;;;;;18.32;10.40;;;;;;;;;;1906176;74;21188;-50
2021/08/30 09:34:38;;;;;;;16.27;10.72;;;;;;;;;;1904360;75;21164;-50
2021/08/30 09:37:08;;;;;;;15.35;10.50;;;;;;;;;;1904589;75;21016;-52
2021/08/30 09:39:37;;;;;;;18.57;10.75;;;;;;;;;;1903947;74;21012;-51
2021/08/30 09:42:06;;;;;;;18.45;10.48;;;;;;;;;;1903220;74;21019;-51
2021/08/30 09:44:35;;;;;;;21.68;11.03;;;;;;;;;;1903824;75;20996;-48
2021/08/30 09:47:05;;;;;;;27.02;10.75;;;;;;;;;;1893986;75;21043;-50
2021/08/30 09:49:34;;;;;;;16.55;9.70;;;;;;;;;;1889108;74;21099;-48
2021/08/30 09:52:03;;;;;;;13.85;10.28;;;;;;;;;;1904193;75;21016;-50
2021/08/30 09:54:32;;;;;;;18.25;11.35;;;;;;;;;;1903456;74;21157;-52
2021/08/30 09:57:01;;;;;;;19.55;11.40;;;;;;;;;;1904575;75;21116;-48
2021/08/30 09:59:31;;;;;;;20.23;10.68;;;;;;;;;;1904660;75;21011;-50
2021/08/30 10:02:02;;;;;;;19.30;10.25;;;;;;;;;;1904364;75;21019;-53
2021/08/30 10:04:31;;;;;;;15.68;10.38;;;;;;;;;;1904573;74;21086;-49
2021/08/30 10:07:00;;;;;;;21.12;10.80;;;;;;;;;;1904467;75;21028;-51
2021/08/30 10:09:30;;;;;;;15.45;10.45;;;;;;;;;;1904297;75;21074;-52
2021/08/30 10:11:59;;;;;;;17.17;11.63;;;;;;;;;;1904591;75;21055;-48
2021/08/30 10:14:29;;;;;;;17.02;9.78;;;;;;;;;;1904384;75;21035;-53
2021/08/30 10:16:58;;;;;;;17.73;11.05;;;;;;;;;;1904474;75;21077;-47
2021/08/30 10:19:31;;;;;;;21.02;10.18;;;;;;;;;;1904557;75;21097;-50
2021/08/30 10:22:00;;;;;;;17.30;12.20;;;;;;;;;;1904631;75;21510;-50
2021/08/30 10:24:30;;;;;;;16.70;10.32;;;;;;;;;;1904520;75;21090;-50
2021/08/30 10:27:02;;;;;;;19.77;11.18;;;;;;;;;;1904019;74;21097;-52
2021/08/30 10:29:34;;;;;;;15.95;10.28;;;;;;;;;;1903243;75;21117;-50
2021/08/30 10:32:03;;;;;;;20.02;11.28;;;;;;;;;;1898196;75;21055;-50
2021/08/30 10:34:33;;;;;;;14.87;9.50;;;;;;;;;;1897692;75;21101;-49
2021/08/30 10:37:03;;;;;;;16.35;9.95;;;;;;;;;;1897687;75;21024;-52
2021/08/30 10:39:38;;;;;;;14.95;9.23;;;;;;;;;;1897595;75;21028;-52
2021/08/30 10:42:08;;;;;;;13.58;9.98;;;;;;;;;;1897754;75;21059;-51
2021/08/30 10:44:38;;;;;;;15.25;10.38;;;;;;;;;;1897709;75;21140;-52
2021/08/30 10:47:08;;;;;;;17.40;10.58;;;;;;;;;;1895513;75;21019;-49
2021/08/30 10:49:38;;;;;;;15.00;10.00;;;;;;;;;;1897541;75;20999;-52
2021/08/30 10:52:10;;;;;;;22.65;13.43;;;;;;;;;;1897718;75;22361;-53
2021/08/30 10:54:58;;;;;;;32.80;18.65;;;;;;;;;;1897916;75;21082;-49
2021/08/30 10:57:33;;;;;;;19.40;9.68;;;;;;;;;;1897875;75;21020;-50
2021/08/30 11:00:03;;;;;;;18.80;9.90;;;;;;;;;;1897632;75;21592;-50
2021/08/30 11:02:36;;;;;;;14.68;12.13;;;;;;;;;;1897769;75;21023;-49
2021/08/30 11:05:07;;;;;;;10.25;7.83;;;;;;;;;;1897337;75;21109;-50
2021/08/30 11:07:36;;;;;;;15.23;9.38;;;;;;;;;;1896700;75;21094;-50
2021/08/30 11:10:06;;;;;;;14.07;8.88;;;;;;;;;;1898447;75;21101;-50
2021/08/30 11:12:35;;;;;;;17.70;9.00;;;;;;;;;;1898362;75;21011;-48
2021/08/30 11:15:04;;;;;;;31.35;22.25;;;;;;;;;;1898076;75;21011;-53
2021/08/30 11:17:33;;;;;;;14.03;10.43;;;;;;;;;;1898311;75;21093;-52
2021/08/30 11:20:02;;;;;;;13.65;9.20;;;;;;;;;;1897894;75;21045;-49
2021/08/30 11:22:31;;;;;;;14.25;7.90;;;;;;;;;;1898231;74;21069;-49
2021/08/30 11:25:01;;;;;;;11.65;7.90;;;;;;;;;;1893421;75;21099;-47
2021/08/30 11:27:32;;;;;;;12.58;7.90;;;;;;;;;;1900074;74;21582;-52
2021/08/30 11:30:01;;;;;;;18.80;10.23;;;;;;;;;;1900311;74;21017;-50
2021/08/30 11:32:31;;;;;;;14.23;9.48;;;;;;;;;;1893190;74;21119;-52
2021/08/30 11:35:00;;;;;;;15.13;9.33;;;;;;;;;;1891748;74;21036;-51
2021/08/30 11:37:31;;;;;;;10.28;7.40;;;;;;;;;;1891501;76;21036;-51
2021/08/30 11:40:00;;;;;;;13.35;9.23;;;;;;;;;;1896329;74;21007;-51
2021/08/30 11:42:31;;;;;;;9.88;7.40;;;;;;;;;;1907068;74;20996;-52
2021/08/30 11:45:01;;;;;;;11.48;7.67;;;;;;;;;;1905402;74;21204;-52
2021/08/30 11:47:30;;;;;;;10.50;6.70;;;;;;;;;;1907327;74;21088;-52
2021/08/30 11:49:59;;;;;;;12.13;6.95;;;;;;;;;;1908304;74;21092;-52
2021/08/30 11:52:29;;;;;;;19.57;8.50;;;;;;;;;;1906374;74;21055;-52
2021/08/30 11:55:00;;;;;;;11.97;7.47;;;;;;;;;;1906097;74;21609;-52
2021/08/30 11:57:30;;;;;;;12.10;6.95;;;;;;;;;;1908195;74;21054;-49
2021/08/30 11:59:58;;;;;;;11.30;7.85;;;;;;;;;;1903154;74;21084;-48
2021/08/30 12:02:28;;;;;;;20.20;8.88;;;;;;;;;;1908934;74;21054;-49
2021/08/30 12:04:58;;;;;;;10.40;6.80;;;;;;;;;;1909073;74;21003;-52
2021/08/30 12:07:26;;;;;;;10.88;6.97;;;;;;;;;;1908500;74;21061;-50
2021/08/30 12:09:55;;;;;;;13.08;7.70;;;;;;;;;;1907854;74;21008;-50
2021/08/30 12:12:29;;;;;;;13.05;7.72;;;;;;;;;;1905534;74;21065;-50
2021/08/30 12:15:09;;;;;;;9.63;6.85;;;;;;;;;;1906368;74;21143;-51
2021/08/30 12:17:39;;;;;;;25.05;7.75;;;;;;;;;;1908632;74;21137;-51
2021/08/30 12:20:09;;;;;;;10.28;6.75;;;;;;;;;;1900205;74;21016;-47
2021/08/30 12:22:39;;;;;;;11.12;8.03;;;;;;;;;;1891605;76;21102;-49
2021/08/30 12:25:09;;;;;;;14.33;7.33;;;;;;;;;;1891545;74;21086;-50
2021/08/30 12:27:42;;;;;;;15.93;7.30;;;;;;;;;;1891455;76;21106;-50
2021/08/30 12:30:27;;;;;;;10.13;7.35;;;;;;;;;;1891432;76;21107;-51
2021/08/30 12:32:57;;;;;;;11.10;7.37;;;;;;;;;;1867166;76;21170;-50
2021/08/30 12:35:28;;;;;;;9.53;7.08;;;;;;;;;;1883204;75;21107;-52
2021/08/30 12:37:58;;;;;;;9.03;7.05;;;;;;;;;;1915762;74;21087;-51
2021/08/30 12:40:28;;;;;;;17.80;7.97;;;;;;;;;;1924356;74;21022;-52
2021/08/30 12:42:57;;;;;;;11.97;7.87;;;;;;;;;;1924588;74;21088;-47
2021/08/30 12:45:26;;;;;;;15.72;7.65;;;;;;;;;;1924004;74;21080;-49
2021/08/30 12:47:55;;;;;;;17.75;8.95;;;;;;;;;;1924481;74;21027;-47
2021/08/30 12:50:24;;;;;;;16.02;8.85;;;;;;;;;;1924659;74;21027;-51
2021/08/30 12:52:53;;;;;;;12.10;8.33;;;;;;;;;;1924675;74;21100;-51
2021/08/30 12:55:22;;;;;;;17.45;9.40;;;;;;;;;;1924672;74;21070;-50
2021/08/30 12:57:51;;;;;;;17.98;8.48;;;;;;;;;;1924602;74;21089;-51
2021/08/30 13:00:20;;;;;;;13.65;7.28;;;;;;;;;;1924624;74;21018;-49
2021/08/30 13:02:51;;;;;;;11.63;8.00;;;;;;;;;;1924594;74;21015;-51
2021/08/30 13:05:21;;;;;;;15.20;9.63;;;;;;;;;;1924587;74;21010;-51
2021/08/30 13:07:51;;;;;;;14.68;8.18;;;;;;;;;;1924532;74;21014;-52
2021/08/30 13:10:21;;;;;;;11.88;8.93;;;;;;;;;;1924506;74;21018;-51
2021/08/30 13:12:49;;;;;;;11.10;8.68;;;;;;;;;;1924647;74;21511;-52
2021/08/30 13:15:19;;;;;;;13.70;8.00;;;;;;;;;;1924573;74;21034;-48
2021/08/30 13:17:48;;;;;;;13.20;8.98;;;;;;;;;;1924611;74;21105;-48
2021/08/30 13:20:17;;;;;;;16.40;7.85;;;;;;;;;;1924729;74;21073;-50
2021/08/30 13:22:47;;;;;;;17.80;8.25;;;;;;;;;;1924500;74;21080;-50
2021/08/30 13:25:17;;;;;;;10.60;7.50;;;;;;;;;;1924577;74;21018;-49
2021/08/30 13:27:47;;;;;;;12.78;8.98;;;;;;;;;;1924722;74;21069;-51
2021/08/30 13:30:16;;;;;;;12.07;7.75;;;;;;;;;;1924620;74;21477;-52
2021/08/30 13:32:45;;;;;;;13.75;7.55;;;;;;;;;;1914937;74;21043;-51
2021/08/30 13:35:14;;;;;;;11.73;7.42;;;;;;;;;;1905380;75;21040;-52
2021/08/30 13:37:43;;;;;;;10.53;7.35;;;;;;;;;;1905337;75;21020;-49
2021/08/30 13:40:12;;;;;;;13.65;7.85;;;;;;;;;;1905194;75;21125;-52
2021/08/30 13:42:42;;;;;;;28.95;18.42;;;;;;;;;;1905320;75;21003;-52
2021/08/30 13:45:11;;;;;;;13.80;9.65;;;;;;;;;;1879005;75;20983;-53
2021/08/30 13:47:40;;;;;;;14.63;8.53;;;;;;;;;;1872727;75;21025;-53
2021/08/30 13:50:10;;;;;;;13.03;8.55;;;;;;;;;;1872669;76;21013;-52
2021/08/30 13:52:40;;;;;;;20.12;7.65;;;;;;;;;;1872846;76;21020;-52
2021/08/30 13:55:10;;;;;;;13.48;7.55;;;;;;;;;;1872867;76;21017;-52
2021/08/30 13:57:39;;;;;;;9.85;8.00;;;;;;;;;;1872711;76;21103;-52
2021/08/30 14:00:08;;;;;;;9.58;8.10;;;;;;;;;;1872941;77;21040;-52
2021/08/30 14:02:40;;;;;;;9.85;7.08;;;;;;;;;;1872767;77;21062;-52
2021/08/30 14:05:09;;;;;;;14.63;8.00;;;;;;;;;;1872786;77;21483;-52
2021/08/30 14:07:38;;;;;;;17.05;8.78;;;;;;;;;;1872797;75;21021;-52
2021/08/30 14:10:08;;;;;;;11.85;8.20;;;;;;;;;;1872819;76;21021;-54
2021/08/30 14:12:36;;;;;;;20.60;8.80;;;;;;;;;;1872798;77;21008;-53
2021/08/30 14:15:06;;;;;;;13.18;8.45;;;;;;;;;;1872792;77;21118;-51
2021/08/30 14:17:35;;;;;;;15.30;8.88;;;;;;;;;;1872842;76;21013;-52
2021/08/30 14:20:04;;;;;;;11.75;8.45;;;;;;;;;;1872786;77;21033;-53
2021/08/30 14:22:33;;;;;;;15.60;10.53;;;;;;;;;;1872785;77;21169;-53
2021/08/30 14:25:02;;;;;;;11.88;8.13;;;;;;;;;;1872653;77;21083;-51
2021/08/30 14:27:31;;;;;;;11.83;8.13;;;;;;;;;;1872771;76;21095;-52
2021/08/30 14:30:00;;;;;;;11.65;8.58;;;;;;;;;;1872862;77;21005;-53
2021/08/30 14:32:29;;;;;;;13.93;7.75;;;;;;;;;;1872654;76;21149;-53
2021/08/30 14:34:58;;;;;;;19.55;10.68;;;;;;;;;;1872732;77;21099;-51
2021/08/30 14:37:26;;;;;;;24.25;10.25;;;;;;;;;;1872709;76;21125;-53
2021/08/30 14:39:55;;;;;;;17.12;12.30;;;;;;;;;;1872673;77;21041;-51
2021/08/30 14:42:24;;;;;;;22.05;12.28;;;;;;;;;;1872697;75;21037;-52